Time;durP1;ratioP1;P1;durP2;ratioP2;P2;SDS_P1;SDS_P2;PMS_P1;PMS_P2;Temp;Humidity;BMP_temperature;BMP_pressure;BME280_temperature;BME280_humidity;BME280_pressure;Samples;Min_cycle;Max_cycle;Signal;HPM_P1;HPM_P2
2022/03/13 00:01:26;;;;;;;24.27;13.93;;;3.00;1.00;;;;;;5107807;27;20331;-86
2022/03/13 00:03:58;;;;;;;19.50;15.05;;;3.00;1.00;;;;;;5114745;28;20262;-86
2022/03/13 00:06:35;;;;;;;14.35;12.85;;;2.90;1.00;;;;;;5104692;27;20223;-86
2022/03/13 00:09:05;;;;;;;19.90;14.65;;;2.90;1.00;;;;;;5113374;28;20264;-85
2022/03/13 00:11:31;;;;;;;16.20;14.25;;;2.90;1.00;;;;;;5103420;28;20224;-86
2022/03/13 00:14:00;;;;;;;18.38;14.32;;;2.90;1.00;;;;;;5108917;27;20695;-85
2022/03/13 00:16:29;;;;;;;19.90;13.65;;;2.80;1.00;;;;;;5106644;27;20251;-87
2022/03/13 00:18:59;;;;;;;17.35;13.35;;;2.80;1.00;;;;;;5105663;27;20224;-86
2022/03/13 00:21:45;;;;;;;19.38;13.55;;;2.80;1.00;;;;;;5127468;27;20228;-87
2022/03/13 00:24:20;;;;;;;17.02;14.68;;;2.70;1.00;;;;;;5116064;28;20208;-86
2022/03/13 00:26:47;;;;;;;16.50;12.80;;;2.60;1.00;;;;;;5119411;27;20227;-86
2022/03/13 00:29:22;;;;;;;17.05;14.65;;;2.60;1.00;;;;;;5113671;27;20227;-85
2022/03/13 00:31:49;;;;;;;15.70;13.00;;;2.60;1.00;;;;;;5113611;27;20215;-86
2022/03/13 00:34:20;;;;;;;15.68;11.93;;;2.50;1.00;;;;;;5108864;28;20336;-86
2022/03/13 00:36:50;;;;;;;19.83;12.95;;;2.50;1.00;;;;;;5111486;28;20332;-84
2022/03/13 00:39:17;;;;;;;17.30;13.10;;;2.50;1.00;;;;;;5110943;27;20221;-86
2022/03/13 00:41:46;;;;;;;15.65;12.18;;;2.40;1.00;;;;;;5105955;27;21090;-85
2022/03/13 00:44:13;;;;;;;14.90;12.32;;;2.40;1.00;;;;;;5107978;27;20227;-86
2022/03/13 00:46:43;;;;;;;18.23;14.02;;;2.40;1.00;;;;;;5110487;27;20296;-85
2022/03/13 00:49:10;;;;;;;17.35;12.55;;;2.40;1.00;;;;;;5107213;28;20256;-85
2022/03/13 00:51:39;;;;;;;17.00;12.88;;;2.30;1.00;;;;;;5102856;28;20345;-83
2022/03/13 00:54:06;;;;;;;14.93;13.10;;;2.30;1.00;;;;;;5104002;27;20318;-85
2022/03/13 00:56:34;;;;;;;16.35;13.23;;;2.30;1.00;;;;;;5105268;27;20792;-86
2022/03/13 00:59:01;;;;;;;19.00;14.15;;;2.20;1.00;;;;;;5106451;27;20219;-85
2022/03/13 01:01:29;;;;;;;14.98;13.35;;;2.20;1.00;;;;;;5099629;27;21010;-85
2022/03/13 01:03:56;;;;;;;18.10;13.52;;;2.10;1.00;;;;;;5107969;27;20237;-82
2022/03/13 01:06:24;;;;;;;17.55;13.13;;;2.10;1.00;;;;;;5124181;27;20674;-81
2022/03/13 01:08:53;;;;;;;13.55;12.13;;;2.10;1.00;;;;;;5113585;27;20212;-86
2022/03/13 01:11:22;;;;;;;17.92;13.02;;;2.10;1.00;;;;;;5105387;28;20309;-85
2022/03/13 01:14:03;;;;;;;16.55;12.95;;;2.10;1.00;;;;;;5096134;27;20223;-83
2022/03/13 01:16:35;;;;;;;17.45;13.52;;;2.00;1.00;;;;;;5109004;27;20254;-83
2022/03/13 01:19:04;;;;;;;15.88;12.82;;;2.00;1.00;;;;;;5101406;28;20224;-82
2022/03/13 01:21:37;;;;;;;16.13;13.38;;;1.90;1.00;;;;;;5101530;28;20305;-81
2022/03/13 01:24:21;;;;;;;18.48;14.15;;;1.90;1.00;;;;;;5102080;27;20430;-83
2022/03/13 01:26:55;;;;;;;22.85;14.60;;;1.80;1.00;;;;;;5098860;27;20835;-83
2022/03/13 01:29:23;;;;;;;16.30;13.85;;;1.80;1.00;;;;;;5097268;27;20293;-84
2022/03/13 01:31:53;;;;;;;16.08;12.88;;;1.70;1.00;;;;;;5102479;27;20254;-84
2022/03/13 01:34:41;;;;;;;17.70;13.30;;;1.70;1.00;;;;;;5098343;28;20840;-83
2022/03/13 01:37:14;;;;;;;19.35;13.30;;;1.70;1.00;;;;;;5108974;28;20255;-82
2022/03/13 01:39:43;;;;;;;15.82;14.13;;;1.70;1.00;;;;;;5101089;27;20318;-82
2022/03/13 01:42:11;;;;;;;18.65;13.02;;;1.60;1.00;;;;;;5100231;27;20235;-82
2022/03/13 01:44:38;;;;;;;17.33;13.60;;;1.60;1.00;;;;;;5122876;27;20326;-83
2022/03/13 01:47:07;;;;;;;21.45;15.43;;;1.60;1.00;;;;;;5105494;27;20277;-83
2022/03/13 01:49:35;;;;;;;18.40;13.75;;;1.60;1.00;;;;;;5106770;27;20247;-81
2022/03/13 01:52:02;;;;;;;18.73;14.80;;;1.50;1.00;;;;;;5117973;27;20242;-81
2022/03/13 01:54:31;;;;;;;20.63;16.13;;;1.50;1.00;;;;;;5116068;27;20256;-80
2022/03/13 01:57:01;;;;;;;17.50;13.77;;;1.50;1.00;;;;;;5116303;28;20241;-80
2022/03/13 01:59:31;;;;;;;18.77;13.38;;;1.40;1.00;;;;;;5115468;27;20275;-82
2022/03/13 02:01:59;;;;;;;21.45;14.63;;;1.40;1.00;;;;;;5107110;27;21011;-84
2022/03/13 02:04:52;;;;;;;19.73;14.13;;;1.40;1.00;;;;;;5109897;28;20196;-85
2022/03/13 02:07:27;;;;;;;18.70;14.15;;;1.40;1.00;;;;;;5125852;27;20224;-83
2022/03/13 02:09:58;;;;;;;17.00;13.70;;;1.40;1.00;;;;;;5118196;28;20321;-82
2022/03/13 02:12:29;;;;;;;17.52;12.60;;;1.40;1.00;;;;;;5106510;27;21465;-83
2022/03/13 02:14:59;;;;;;;20.50;12.93;;;1.40;1.00;;;;;;5104308;28;20204;-82
2022/03/13 02:17:29;;;;;;;16.15;12.57;;;1.40;1.00;;;;;;5113298;27;20836;-82
2022/03/13 02:19:58;;;;;;;17.38;14.77;;;1.40;1.00;;;;;;5106864;27;21195;-82
2022/03/13 02:22:26;;;;;;;15.80;12.52;;;1.30;1.00;;;;;;5114021;28;20235;-83
2022/03/13 02:24:55;;;;;;;16.23;14.32;;;1.30;1.00;;;;;;5124802;27;20231;-80
2022/03/13 02:27:24;;;;;;;16.70;13.70;;;1.30;1.00;;;;;;5126428;28;20240;-82
2022/03/13 02:29:52;;;;;;;16.55;13.63;;;1.30;1.00;;;;;;5185326;22;20248;-83
2022/03/13 02:32:20;;;;;;;17.13;13.45;;;1.20;1.00;;;;;;5126017;27;20215;-84
2022/03/13 02:34:48;;;;;;;18.60;13.88;;;1.20;1.00;;;;;;5138718;27;20217;-81
2022/03/13 02:37:33;;;;;;;19.50;13.80;;;1.20;1.00;;;;;;5142964;27;20621;-83
2022/03/13 02:40:02;;;;;;;17.52;12.73;;;1.20;1.00;;;;;;5128972;27;20224;-84
2022/03/13 02:42:30;;;;;;;20.80;12.60;;;1.20;1.00;;;;;;5137810;27;20227;-81
2022/03/13 02:45:00;;;;;;;16.45;13.35;;;1.20;1.00;;;;;;5124985;27;20220;-82
2022/03/13 02:47:27;;;;;;;16.85;13.45;;;1.20;1.00;;;;;;5125503;27;20238;-83
2022/03/13 02:52:42;;;;;;;21.95;13.18;;;1.20;1.00;;;;;;5140112;27;20222;-82
2022/03/13 02:55:11;;;;;;;16.33;13.43;;;1.20;1.00;;;;;;5133274;27;20227;-83
2022/03/13 02:57:39;;;;;;;16.88;13.38;;;1.20;1.00;;;;;;5128995;27;20228;-84
2022/03/13 03:00:10;;;;;;;20.88;14.88;;;1.10;1.00;;;;;;5122864;27;21420;-81
2022/03/13 03:02:38;;;;;;;19.45;14.38;;;1.10;1.00;;;;;;5121350;27;20232;-82
2022/03/13 03:05:07;;;;;;;16.83;13.60;;;1.10;1.00;;;;;;5126324;27;20212;-82
2022/03/13 03:07:35;;;;;;;18.85;14.00;;;1.10;1.00;;;;;;5127642;27;20262;-83
2022/03/13 03:10:03;;;;;;;18.20;14.18;;;1.10;1.00;;;;;;5131032;27;20214;-84
2022/03/13 03:12:34;;;;;;;19.02;15.57;;;1.00;1.00;;;;;;5125785;27;20342;-82
2022/03/13 03:15:06;;;;;;;19.55;15.00;;;1.00;1.00;;;;;;5123646;27;20233;-84
2022/03/13 03:17:33;;;;;;;19.85;14.25;;;1.00;1.00;;;;;;5120116;27;20996;-83
2022/03/13 03:20:05;;;;;;;20.08;14.82;;;1.00;1.00;;;;;;5138084;27;20276;-83
2022/03/13 03:22:35;;;;;;;19.63;15.73;;;1.00;1.00;;;;;;5120213;27;20255;-83
2022/03/13 03:25:03;;;;;;;18.30;14.65;;;0.90;1.00;;;;;;5124252;27;20273;-83
2022/03/13 03:27:31;;;;;;;21.05;14.07;;;0.90;1.00;;;;;;5119852;27;20235;-82
2022/03/13 03:30:07;;;;;;;21.67;15.27;;;0.90;1.00;;;;;;5151734;27;20247;-84
2022/03/13 03:32:34;;;;;;;20.45;15.32;;;0.90;1.00;;;;;;5125667;27;20335;-82
2022/03/13 03:35:02;;;;;;;19.10;15.00;;;0.90;1.00;;;;;;5123488;27;20234;-82
2022/03/13 03:37:36;;;;;;;21.50;15.35;;;0.90;1.00;;;;;;5126574;27;20223;-82
2022/03/13 03:40:05;;;;;;;24.30;15.02;;;0.90;1.00;;;;;;5122370;27;20211;-83
2022/03/13 03:42:31;;;;;;;26.80;15.20;;;0.90;1.00;;;;;;5120073;27;20247;-83
2022/03/13 03:45:00;;;;;;;17.45;13.70;;;0.90;1.00;;;;;;5117449;27;20289;-83
2022/03/13 03:47:30;;;;;;;19.23;14.63;;;0.80;1.00;;;;;;5120973;27;20308;-83
2022/03/13 03:49:57;;;;;;;19.05;14.18;;;0.80;1.00;;;;;;5121071;27;20223;-82
2022/03/13 03:52:27;;;;;;;20.83;14.00;;;0.80;1.00;;;;;;5124520;27;20227;-82
2022/03/13 03:54:54;;;;;;;22.33;15.82;;;0.80;1.00;;;;;;5123122;27;20279;-82
2022/03/13 03:57:21;;;;;;;17.33;13.30;;;0.80;1.00;;;;;;5122104;27;21414;-82
2022/03/13 03:59:48;;;;;;;19.92;14.48;;;0.80;1.00;;;;;;5119484;27;20270;-82
2022/03/13 04:02:18;;;;;;;21.80;14.48;;;0.70;1.00;;;;;;5127693;27;20223;-83
2022/03/13 04:04:46;;;;;;;19.15;15.40;;;0.70;1.00;;;;;;5123447;27;20223;-83
2022/03/13 04:07:14;;;;;;;22.77;14.27;;;0.70;1.00;;;;;;5122143;27;20314;-83
2022/03/13 04:09:41;;;;;;;24.98;15.32;;;0.70;1.00;;;;;;5119925;27;20228;-81
2022/03/13 04:12:09;;;;;;;20.75;13.98;;;0.70;1.00;;;;;;5124798;27;20211;-84
2022/03/13 04:14:37;;;;;;;19.67;14.32;;;0.70;1.00;;;;;;5139808;27;20221;-82
2022/03/13 04:17:05;;;;;;;23.05;15.00;;;0.70;1.00;;;;;;5131708;27;20245;-82
2022/03/13 04:19:35;;;;;;;22.83;15.95;;;0.70;1.00;;;;;;5123367;27;20248;-82
2022/03/13 04:22:03;;;;;;;20.88;15.23;;;0.70;1.00;;;;;;5124818;27;20288;-83
2022/03/13 04:24:31;;;;;;;22.10;14.68;;;0.60;1.00;;;;;;5126479;27;20762;-83
2022/03/13 04:26:58;;;;;;;18.52;14.13;;;0.60;1.00;;;;;;5123620;27;20674;-84
2022/03/13 04:29:26;;;;;;;16.95;13.10;;;0.60;1.00;;;;;;5124512;27;20224;-84
2022/03/13 04:31:55;;;;;;;20.75;13.98;;;0.60;1.00;;;;;;5120125;27;20231;-83
2022/03/13 04:34:22;;;;;;;20.88;14.00;;;0.60;1.00;;;;;;5123888;27;20293;-81
2022/03/13 04:36:51;;;;;;;19.88;13.65;;;0.60;1.00;;;;;;5123519;27;20227;-84
2022/03/13 04:39:18;;;;;;;15.57;13.05;;;0.60;1.00;;;;;;5122796;27;20228;-83
2022/03/13 04:41:49;;;;;;;15.63;13.60;;;0.50;1.00;;;;;;5127973;27;20222;-83
2022/03/13 04:44:17;;;;;;;18.45;13.93;;;0.50;1.00;;;;;;5125896;27;20207;-84
2022/03/13 04:46:46;;;;;;;18.27;15.23;;;0.50;1.00;;;;;;5123279;27;20313;-84
2022/03/13 04:49:14;;;;;;;16.38;12.95;;;0.50;1.00;;;;;;5131236;27;20931;-84
2022/03/13 04:51:41;;;;;;;22.58;13.73;;;0.50;1.00;;;;;;5130494;27;20258;-82
2022/03/13 04:54:10;;;;;;;19.67;14.40;;;0.50;1.00;;;;;;5122563;27;20220;-84
2022/03/13 04:56:38;;;;;;;16.30;13.40;;;0.50;1.00;;;;;;5137660;27;20223;-83
2022/03/13 04:59:07;;;;;;;19.25;14.43;;;0.40;1.00;;;;;;5120410;27;20319;-83
2022/03/13 05:01:34;;;;;;;18.67;14.15;;;0.50;1.00;;;;;;5117279;27;20220;-82
2022/03/13 05:04:02;;;;;;;19.15;14.52;;;0.50;1.00;;;;;;5116493;27;20253;-82
2022/03/13 05:06:29;;;;;;;21.20;13.40;;;0.40;1.00;;;;;;5117219;27;20223;-84
2022/03/13 05:08:58;;;;;;;20.65;13.45;;;0.40;1.00;;;;;;5124067;27;20231;-82
2022/03/13 05:11:27;;;;;;;17.58;14.10;;;0.30;1.00;;;;;;5122217;27;20270;-83
2022/03/13 05:13:54;;;;;;;19.55;14.50;;;0.40;1.00;;;;;;5133179;27;20235;-81
2022/03/13 05:16:21;;;;;;;17.48;13.27;;;0.40;1.00;;;;;;5144977;27;20226;-81
2022/03/13 05:18:49;;;;;;;16.27;13.82;;;0.40;1.00;;;;;;5140398;27;20226;-81
2022/03/13 05:21:17;;;;;;;19.42;14.23;;;0.30;1.00;;;;;;5129581;27;20234;-83
2022/03/13 05:23:45;;;;;;;17.80;13.95;;;0.30;1.00;;;;;;5122602;27;20223;-83
2022/03/13 05:26:12;;;;;;;19.27;13.98;;;0.30;1.00;;;;;;5120898;27;20319;-83
2022/03/13 05:28:41;;;;;;;18.73;14.23;;;0.30;1.00;;;;;;5131128;27;20242;-83
2022/03/13 05:31:09;;;;;;;17.40;14.38;;;0.30;1.00;;;;;;5125399;27;20234;-82
2022/03/13 05:33:36;;;;;;;19.10;14.32;;;0.30;1.00;;;;;;5123208;27;20219;-82
2022/03/13 05:36:04;;;;;;;19.15;13.68;;;0.30;1.00;;;;;;5117539;27;20257;-82
2022/03/13 05:38:34;;;;;;;21.38;14.13;;;0.20;1.00;;;;;;5125309;27;20227;-84
2022/03/13 05:41:05;;;;;;;20.23;14.57;;;0.20;1.00;;;;;;5121785;27;20226;-83
2022/03/13 05:43:32;;;;;;;21.40;13.98;;;0.20;1.00;;;;;;5120383;27;20775;-83
2022/03/13 05:46:01;;;;;;;24.10;14.90;;;0.20;1.00;;;;;;5127076;27;20989;-83
2022/03/13 05:48:30;;;;;;;20.10;14.05;;;0.20;1.00;;;;;;5123512;27;20223;-84
2022/03/13 05:50:57;;;;;;;24.08;14.30;;;0.20;1.00;;;;;;5122812;27;20323;-84
2022/03/13 05:53:24;;;;;;;19.80;14.57;;;0.20;1.00;;;;;;5123335;27;20399;-82
2022/03/13 05:55:53;;;;;;;16.90;13.43;;;0.20;1.00;;;;;;5124840;27;20227;-83
2022/03/13 05:58:21;;;;;;;20.80;14.35;;;0.20;1.00;;;;;;5127222;27;20223;-82
2022/03/13 06:00:54;;;;;;;17.92;13.85;;;0.30;1.00;;;;;;5123317;27;20219;-84
2022/03/13 06:03:25;;;;;;;19.30;14.63;;;0.30;1.00;;;;;;5118588;27;20215;-82
2022/03/13 06:05:53;;;;;;;16.60;12.98;;;0.30;1.00;;;;;;5120926;27;20224;-82
2022/03/13 06:08:21;;;;;;;19.75;13.85;;;0.30;1.00;;;;;;5121134;27;20904;-84
2022/03/13 06:10:48;;;;;;;17.80;14.25;;;0.40;1.00;;;;;;5125744;27;20289;-84
2022/03/13 06:13:16;;;;;;;21.73;14.68;;;0.40;1.00;;;;;;5127539;27;20990;-84
2022/03/13 06:15:45;;;;;;;18.70;13.65;;;0.50;1.00;;;;;;5125020;27;20223;-83
2022/03/13 06:18:13;;;;;;;17.67;14.30;;;0.50;1.00;;;;;;5122161;27;20224;-83
2022/03/13 06:20:43;;;;;;;15.85;13.80;;;0.50;1.00;;;;;;5123214;27;20265;-82
2022/03/13 06:23:11;;;;;;;20.98;14.85;;;0.50;1.00;;;;;;5127730;27;20565;-83
2022/03/13 06:25:38;;;;;;;22.95;14.23;;;0.60;1.00;;;;;;5142745;27;20266;-83
2022/03/13 06:28:06;;;;;;;19.08;14.85;;;0.60;1.00;;;;;;5152115;27;20227;-81
2022/03/13 06:30:34;;;;;;;19.08;13.98;;;0.70;1.00;;;;;;5149364;27;20243;-82
2022/03/13 06:33:01;;;;;;;19.15;14.60;;;0.70;1.00;;;;;;5143562;27;20283;-83
2022/03/13 06:35:29;;;;;;;22.30;15.95;;;0.80;1.00;;;;;;5125697;27;20283;-82
2022/03/13 06:37:57;;;;;;;20.25;13.98;;;0.80;1.00;;;;;;5122920;27;20239;-84
2022/03/13 06:40:26;;;;;;;18.23;14.13;;;0.90;1.00;;;;;;5125791;27;20224;-83
2022/03/13 06:42:56;;;;;;;19.63;13.25;;;1.00;1.00;;;;;;5122756;27;20981;-82
2022/03/13 06:45:24;;;;;;;18.00;13.48;;;1.00;1.00;;;;;;5157326;27;20222;-83
2022/03/13 06:47:52;;;;;;;18.58;14.50;;;1.10;1.00;;;;;;5126494;27;20239;-83
2022/03/13 06:50:24;;;;;;;21.88;14.15;;;1.20;1.00;;;;;;5122531;27;20327;-83
2022/03/13 06:52:53;;;;;;;20.90;14.45;;;1.30;1.00;;;;;;5122468;27;20219;-83
2022/03/13 06:55:27;;;;;;;21.35;14.52;;;1.50;1.00;;;;;;5120799;27;20230;-83
2022/03/13 06:57:54;;;;;;;18.98;13.45;;;1.60;1.00;;;;;;5124180;27;20237;-83
2022/03/13 07:00:21;;;;;;;16.73;13.20;;;1.70;1.00;;;;;;5118945;27;20224;-82
2022/03/13 07:02:48;;;;;;;18.33;13.77;;;1.80;1.00;;;;;;5123965;27;20237;-82
2022/03/13 07:05:16;;;;;;;17.02;13.60;;;1.90;1.00;;;;;;5126055;27;20219;-82
2022/03/13 07:07:44;;;;;;;22.80;15.27;;;2.00;1.00;;;;;;5126247;27;20395;-82
2022/03/13 07:10:12;;;;;;;19.20;14.55;;;2.10;1.00;;;;;;5125388;27;20227;-82
2022/03/13 07:12:44;;;;;;;21.58;14.13;;;2.30;1.00;;;;;;5134509;27;20249;-80
2022/03/13 07:15:13;;;;;;;21.23;15.13;;;2.40;1.00;;;;;;5154417;27;20203;-81
2022/03/13 07:17:42;;;;;;;19.08;14.07;;;2.60;1.00;;;;;;5149481;27;20215;-80
2022/03/13 07:20:10;;;;;;;20.35;15.30;;;2.70;1.00;;;;;;5147120;27;20283;-81
2022/03/13 07:22:41;;;;;;;16.38;13.70;;;3.00;1.00;;;;;;5146179;27;20223;-81
2022/03/13 07:25:10;;;;;;;20.25;14.10;;;3.10;1.00;;;;;;5149870;27;20252;-82
2022/03/13 07:27:37;;;;;;;18.90;14.30;;;3.20;1.00;;;;;;5168898;27;20276;-81
2022/03/13 07:30:08;;;;;;;15.52;13.55;;;3.30;1.00;;;;;;5146918;27;20298;-81
2022/03/13 07:32:36;;;;;;;18.48;14.98;;;3.40;1.00;;;;;;5146379;27;20276;-81
2022/03/13 07:35:03;;;;;;;18.42;13.35;;;3.50;1.00;;;;;;5133889;27;20258;-81
2022/03/13 07:37:31;;;;;;;16.48;13.02;;;3.60;1.00;;;;;;5129143;27;20227;-83
2022/03/13 07:39:59;;;;;;;18.25;13.70;;;3.70;1.00;;;;;;5127140;27;20343;-83
2022/03/13 07:42:26;;;;;;;16.73;13.77;;;3.80;1.00;;;;;;5142871;27;20238;-82
2022/03/13 07:45:21;;;;;;;15.70;13.23;;;4.00;1.00;;;;;;5147899;27;20204;-82
2022/03/13 07:47:49;;;;;;;19.33;13.90;;;4.20;1.00;;;;;;5149652;27;20223;-81
2022/03/13 07:50:16;;;;;;;17.40;13.95;;;4.30;1.00;;;;;;5137715;27;20272;-82
2022/03/13 07:52:44;;;;;;;16.77;13.80;;;4.40;1.00;;;;;;5132833;27;20231;-81
2022/03/13 07:55:14;;;;;;;16.65;13.52;;;4.50;1.00;;;;;;5121658;27;20238;-84
2022/03/13 07:57:41;;;;;;;19.95;14.15;;;4.70;1.00;;;;;;5122052;27;21151;-83
2022/03/13 08:00:10;;;;;;;17.88;12.65;;;4.80;1.00;;;;;;5120495;27;20235;-83
2022/03/13 08:02:44;;;;;;;16.52;14.02;;;4.90;1.00;;;;;;5135463;27;20319;-82
2022/03/13 08:05:11;;;;;;;20.73;14.25;;;5.10;1.00;;;;;;5122460;27;20223;-84
2022/03/13 08:07:39;;;;;;;23.92;15.65;;;5.20;1.00;;;;;;5123440;27;20313;-84
2022/03/13 08:10:06;;;;;;;17.70;13.43;;;5.40;1.00;;;;;;5120894;27;20231;-83
2022/03/13 08:12:33;;;;;;;19.50;13.70;;;5.50;1.00;;;;;;5128139;27;20243;-84
2022/03/13 08:15:04;;;;;;;17.65;13.07;;;5.60;1.00;;;;;;5127297;27;20219;-84
2022/03/13 08:17:31;;;;;;;14.82;13.02;;;5.70;1.00;;;;;;5138406;27;20322;-82
2022/03/13 08:20:00;;;;;;;15.35;12.35;;;5.80;1.00;;;;;;5145405;27;20283;-81
2022/03/13 08:22:27;;;;;;;14.95;12.40;;;6.00;1.00;;;;;;5150058;27;20234;-82
2022/03/13 08:24:54;;;;;;;18.45;12.88;;;6.10;1.00;;;;;;5143632;27;20223;-83
2022/03/13 08:27:21;;;;;;;15.43;13.05;;;6.30;1.00;;;;;;5123468;27;22011;-82
2022/03/13 08:29:48;;;;;;;12.18;10.85;;;6.40;1.00;;;;;;5126415;27;20230;-83
2022/03/13 08:32:16;;;;;;;21.27;13.23;;;6.60;1.00;;;;;;5130523;27;21092;-83
2022/03/13 08:34:44;;;;;;;13.43;11.15;;;6.70;1.00;;;;;;5135427;27;20401;-83
2022/03/13 08:37:14;;;;;;;13.75;11.38;;;6.90;1.00;;;;;;5138621;27;20219;-82
2022/03/13 08:39:41;;;;;;;14.80;9.55;;;7.10;1.00;;;;;;5144252;27;20314;-81
2022/03/13 08:42:08;;;;;;;12.30;9.70;;;7.20;1.00;;;;;;5150200;27;20683;-82
2022/03/13 08:44:36;;;;;;;12.00;10.70;;;7.30;1.00;;;;;;5138108;27;20219;-83
2022/03/13 08:47:04;;;;;;;13.00;11.60;;;7.40;1.00;;;;;;5145060;27;20223;-82
2022/03/13 08:49:31;;;;;;;13.52;10.52;;;7.60;1.00;;;;;;5128667;27;20697;-83
2022/03/13 08:51:58;;;;;;;12.35;9.73;;;7.70;1.00;;;;;;5125827;27;20246;-83
2022/03/13 08:54:27;;;;;;;15.05;11.48;;;7.80;1.00;;;;;;5131329;27;20215;-82
2022/03/13 08:56:58;;;;;;;13.85;9.80;;;8.00;1.00;;;;;;5139739;27;20771;-83
2022/03/13 08:59:25;;;;;;;12.63;10.10;;;8.00;1.00;;;;;;5129667;27;20243;-80
2022/03/13 09:01:52;;;;;;;13.80;10.20;;;8.20;1.00;;;;;;5124421;27;20231;-79
2022/03/13 09:04:20;;;;;;;12.88;9.80;;;8.30;1.00;;;;;;5123156;27;21779;-80
2022/03/13 09:06:47;;;;;;;12.88;9.70;;;8.70;1.00;;;;;;5117645;27;20235;-79
2022/03/13 09:09:14;;;;;;;11.83;10.57;;;9.40;1.00;;;;;;5124194;27;20234;-79
2022/03/13 09:11:44;;;;;;;11.63;9.77;;;10.20;1.00;;;;;;5123521;27;20457;-81
2022/03/13 09:14:11;;;;;;;11.83;10.53;;;11.00;1.00;;;;;;5125915;27;20467;-79
2022/03/13 09:16:39;;;;;;;13.03;10.43;;;12.00;1.00;;;;;;5129400;27;20474;-81
2022/03/13 09:19:06;;;;;;;13.57;10.30;;;12.60;1.00;;;;;;5122919;27;20528;-80
2022/03/13 09:21:34;;;;;;;13.27;10.70;;;13.20;1.00;;;;;;5128130;27;20437;-79
2022/03/13 09:24:01;;;;;;;13.60;10.83;;;13.60;1.00;;;;;;5124851;27;20972;-80
2022/03/13 09:26:28;;;;;;;12.50;10.73;;;14.50;1.00;;;;;;5128033;27;20454;-79
2022/03/13 09:28:57;;;;;;;11.80;9.83;;;15.00;1.00;;;;;;5126786;27;20481;-79
2022/03/13 09:31:23;;;;;;;12.20;10.80;;;15.60;1.00;;;;;;5124503;27;20440;-81
2022/03/13 09:33:50;;;;;;;13.33;11.50;;;16.50;1.00;;;;;;5126813;27;21080;-82
2022/03/13 09:36:17;;;;;;;13.23;11.00;;;17.30;1.00;;;;;;5121097;27;20580;-80
2022/03/13 09:38:45;;;;;;;11.67;10.47;;;17.80;1.00;;;;;;5122224;27;21679;-76
2022/03/13 09:41:12;;;;;;;12.43;11.20;;;18.20;1.00;;;;;;5114825;27;20456;-78
2022/03/13 09:43:39;;;;;;;13.77;11.10;;;18.10;1.00;;;;;;5121789;27;20438;-78
2022/03/13 09:46:07;;;;;;;12.70;10.40;;;18.40;1.00;;;;;;5137380;27;21361;-79
2022/03/13 09:48:36;;;;;;;12.90;11.60;;;18.10;1.00;;;;;;5121052;27;21275;-79
2022/03/13 09:51:06;;;;;;;15.73;14.07;;;17.80;1.00;;;;;;5126267;27;20440;-81
2022/03/13 09:53:34;;;;;;;12.60;10.23;;;18.80;1.00;;;;;;5123096;27;20554;-80
2022/03/13 09:56:03;;;;;;;13.93;11.73;;;19.10;1.00;;;;;;5125933;27;20440;-78
2022/03/13 09:58:30;;;;;;;12.70;10.73;;;19.10;1.00;;;;;;5141307;27;20439;-78
2022/03/13 10:01:00;;;;;;;13.20;10.00;;;18.60;1.00;;;;;;5132073;27;20418;-80
2022/03/13 10:03:28;;;;;;;12.33;10.90;;;18.60;1.00;;;;;;5133466;27;20497;-78
2022/03/13 10:05:56;;;;;;;13.20;11.80;;;18.90;1.00;;;;;;5139581;27;20478;-78
2022/03/13 10:08:28;;;;;;;11.77;10.53;;;19.20;1.00;;;;;;5141043;27;20421;-78
2022/03/13 10:10:56;;;;;;;11.23;10.10;;;19.90;1.00;;;;;;5138926;27;20606;-78
2022/03/13 10:13:36;;;;;;;13.77;10.37;;;20.10;1.00;;;;;;5135190;27;22986;-80
2022/03/13 10:16:04;;;;;;;10.00;8.63;;;20.30;1.00;;;;;;5129430;27;20960;-79
2022/03/13 10:18:33;;;;;;;10.20;9.20;;;20.80;1.00;;;;;;5129520;27;21354;-78
2022/03/13 10:21:07;;;;;;;9.20;8.30;;;21.60;1.00;;;;;;5129319;27;20452;-79
2022/03/13 10:23:37;;;;;;;9.57;8.43;;;21.40;1.00;;;;;;5126940;27;20475;-77
2022/03/13 10:26:05;;;;;;;9.23;7.00;;;20.70;1.00;;;;;;5123338;27;20473;-77
2022/03/13 10:28:33;;;;;;;10.50;7.17;;;20.20;1.00;;;;;;5119236;27;20453;-79
2022/03/13 10:31:13;;;;;;;9.20;7.87;;;20.10;1.00;;;;;;5120333;27;20456;-81
2022/03/13 10:33:56;;;;;;;9.30;8.40;;;20.40;1.00;;;;;;5127405;27;20468;-78
2022/03/13 10:36:31;;;;;;;9.50;8.50;;;21.00;1.00;;;;;;5114608;27;20445;-79
2022/03/13 10:38:59;;;;;;;10.13;9.13;;;21.50;1.00;;;;;;5114764;27;20450;-80
2022/03/13 10:41:39;;;;;;;9.10;8.20;;;21.40;1.00;;;;;;5114534;27;20445;-82
2022/03/13 10:44:13;;;;;;;12.60;9.07;;;20.70;1.00;;;;;;5120119;27;20457;-79
2022/03/13 10:46:42;;;;;;;9.83;8.30;;;20.40;1.00;;;;;;5127078;27;20504;-78
2022/03/13 10:49:11;;;;;;;8.70;7.80;;;20.70;1.00;;;;;;5128368;27;20976;-78
2022/03/13 10:51:45;;;;;;;8.63;7.73;;;21.10;1.00;;;;;;5128608;27;20457;-78
2022/03/13 10:54:27;;;;;;;9.83;8.13;;;21.10;1.00;;;;;;5128923;27;20448;-83
2022/03/13 10:57:05;;;;;;;10.27;8.70;;;21.20;1.00;;;;;;5125334;27;20434;-82
2022/03/13 10:59:32;;;;;;;9.27;8.07;;;21.80;1.00;;;;;;5145459;27;20444;-77
2022/03/13 11:02:12;;;;;;;10.20;8.70;;;22.70;1.00;;;;;;5149939;27;20413;-78
2022/03/13 11:04:48;;;;;;;10.30;9.20;;;22.20;1.00;;;;;;5128739;27;21214;-79
2022/03/13 11:07:15;;;;;;;9.60;8.33;;;22.00;1.00;;;;;;5122052;27;20561;-80
2022/03/13 11:09:42;;;;;;;10.20;9.00;;;22.10;1.00;;;;;;5127191;27;20465;-80
2022/03/13 11:12:17;;;;;;;10.40;8.77;;;22.90;1.00;;;;;;5121231;27;21033;-80
2022/03/13 11:14:45;;;;;;;9.53;7.93;;;23.40;1.00;;;;;;5114863;27;20454;-78
2022/03/13 11:17:12;;;;;;;10.33;8.10;;;22.80;1.00;;;;;;5116627;27;20433;-77
2022/03/13 11:19:40;;;;;;;9.80;8.83;;;22.60;1.00;;;;;;5121830;27;20397;-84
2022/03/13 11:22:08;;;;;;;8.67;7.80;;;23.40;1.00;;;;;;5121213;27;20450;-78
2022/03/13 11:24:36;;;;;;;8.73;7.53;;;23.90;1.00;;;;;;5122018;27;20584;-79
2022/03/13 11:27:08;;;;;;;12.17;8.23;;;23.70;1.00;;;;;;5130450;27;20456;-78
2022/03/13 11:29:42;;;;;;;9.43;8.43;;;24.20;1.00;;;;;;5139287;27;20438;-78
2022/03/13 11:32:35;;;;;;;9.13;7.93;;;25.40;1.00;;;;;;5140383;27;20460;-80
2022/03/13 11:35:27;;;;;;;9.23;8.33;;;26.00;1.00;;;;;;5122066;27;20457;-79
2022/03/13 11:38:15;;;;;;;8.93;8.07;;;25.60;1.00;;;;;;5128376;27;20441;-81
2022/03/13 11:40:42;;;;;;;9.77;8.87;;;25.20;1.00;;;;;;5120441;27;21455;-81
2022/03/13 11:43:13;;;;;;;10.03;9.03;;;25.50;1.00;;;;;;5119842;27;20409;-79
2022/03/13 11:45:41;;;;;;;12.90;10.20;;;25.50;1.00;;;;;;5116671;27;20494;-80
2022/03/13 11:48:39;;;;;;;12.97;8.60;;;25.40;1.00;;;;;;5122807;27;20529;-81
2022/03/13 11:51:07;;;;;;;10.43;9.37;;;25.70;1.00;;;;;;5098527;27;20458;-81
2022/03/13 11:53:48;;;;;;;14.30;10.40;;;26.10;1.00;;;;;;5122974;27;20494;-80
2022/03/13 11:56:29;;;;;;;11.57;10.37;;;27.00;1.00;;;;;;5118686;27;21338;-81
2022/03/13 11:58:58;;;;;;;12.10;10.87;;;27.70;1.00;;;;;;5119941;27;20434;-80
2022/03/13 12:01:36;;;;;;;12.83;11.60;;;27.50;1.00;;;;;;5111774;27;20458;-83
2022/03/13 12:04:28;;;;;;;15.80;12.87;;;27.80;1.00;;;;;;5115680;27;20552;-80
2022/03/13 12:06:57;;;;;;;13.50;11.17;;;27.80;1.00;;;;;;5109356;27;20457;-80
2022/03/13 12:09:42;;;;;;;13.80;12.47;;;27.50;1.00;;;;;;5118271;27;20559;-80
2022/03/13 12:12:12;;;;;;;14.43;13.03;;;27.20;1.00;;;;;;5116522;27;21361;-80
2022/03/13 12:15:06;;;;;;;12.43;11.13;;;27.40;1.00;;;;;;5118720;27;20445;-81
2022/03/13 12:17:46;;;;;;;15.13;11.03;;;27.50;1.00;;;;;;5136718;27;20418;-82
2022/03/13 12:20:22;;;;;;;14.40;12.97;;;27.90;1.00;;;;;;5130261;27;21580;-82
2022/03/13 12:22:53;;;;;;;11.43;10.23;;;27.80;1.00;;;;;;5124268;27;20524;-82
2022/03/13 12:25:25;;;;;;;12.27;11.10;;;27.10;1.00;;;;;;5123138;27;20511;-81
2022/03/13 12:27:51;;;;;;;12.17;10.83;;;27.40;1.00;;;;;;5127882;27;21348;-82
2022/03/13 12:30:24;;;;;;;14.17;12.77;;;27.60;1.00;;;;;;5142562;27;20382;-80
2022/03/13 12:32:57;;;;;;;12.60;11.40;;;27.80;1.00;;;;;;5143757;27;20425;-81
2022/03/13 12:35:25;;;;;;;13.47;11.77;;;28.00;1.00;;;;;;5136504;27;20444;-79
2022/03/13 12:37:55;;;;;;;13.43;10.80;;;28.40;1.00;;;;;;5144600;27;20435;-80
2022/03/13 12:40:24;;;;;;;12.73;10.30;;;29.10;1.00;;;;;;5150398;27;20451;-80
2022/03/13 12:42:55;;;;;;;12.47;11.13;;;29.20;1.00;;;;;;5145283;27;20457;-81
2022/03/13 12:45:28;;;;;;;11.50;10.30;;;29.40;1.00;;;;;;5138199;27;20466;-81
2022/03/13 12:48:01;;;;;;;11.10;9.70;;;29.50;1.00;;;;;;5122941;27;20986;-81
2022/03/13 12:50:27;;;;;;;11.80;10.60;;;29.30;1.00;;;;;;5119075;27;20429;-81
2022/03/13 12:52:56;;;;;;;11.47;10.27;;;29.30;1.00;;;;;;5122014;27;20485;-81
2022/03/13 12:55:25;;;;;;;13.80;10.50;;;29.10;1.00;;;;;;5116355;27;20453;-81
2022/03/13 12:57:54;;;;;;;9.20;8.30;;;29.10;1.00;;;;;;5109919;27;21812;-82
2022/03/13 13:00:31;;;;;;;11.50;10.33;;;28.60;1.00;;;;;;5134029;27;20456;-81
2022/03/13 13:02:59;;;;;;;12.03;10.53;;;27.60;1.00;;;;;;5141064;27;20420;-79